createdAt,value
2022-09-28T00:00:53.375Z,10.62
2022-09-28T00:01:53.353Z,10.65
2022-09-28T00:02:53.575Z,10.65
2022-09-28T00:03:53.868Z,10.68
2022-09-28T00:04:54.177Z,10.68
2022-09-28T00:05:54.491Z,10.60
2022-09-28T00:06:54.890Z,10.60
2022-09-28T00:07:55.102Z,10.63
2022-09-28T00:08:55.413Z,10.63
2022-09-28T00:09:55.777Z,10.62
2022-09-28T00:10:55.932Z,10.63
2022-09-28T00:11:56.364Z,10.66
2022-09-28T00:12:56.566Z,10.65
2022-09-28T00:13:56.917Z,10.62
2022-09-28T00:14:57.246Z,10.63
2022-09-28T00:15:57.564Z,10.65
2022-09-28T00:16:57.829Z,10.62
2022-09-28T00:17:58.139Z,10.62
2022-09-28T00:18:58.413Z,10.63
2022-09-28T00:19:58.688Z,10.59
2022-09-28T00:20:58.969Z,10.63
2022-09-28T00:21:59.270Z,10.65
2022-09-28T00:22:59.523Z,10.70
2022-09-28T00:23:59.917Z,10.68
2022-09-28T00:25:00.226Z,10.63
2022-09-28T00:26:00.562Z,10.65
2022-09-28T00:27:00.790Z,10.60
2022-09-28T00:28:01.102Z,10.62
2022-09-28T00:29:01.415Z,10.63
2022-09-28T00:30:01.691Z,10.65
2022-09-28T00:31:02.176Z,10.65
2022-09-28T00:32:02.480Z,10.68
2022-09-28T00:33:02.562Z,10.66
2022-09-28T00:34:02.876Z,10.65
2022-09-28T00:35:03.148Z,10.66
2022-09-28T00:36:03.482Z,10.63
2022-09-28T00:37:03.808Z,10.63
2022-09-28T00:38:04.097Z,10.60
2022-09-28T00:39:04.407Z,10.63
2022-09-28T00:40:04.712Z,10.66
2022-09-28T00:41:04.989Z,10.66
2022-09-28T00:42:05.318Z,10.68
2022-09-28T00:43:05.632Z,10.70
2022-09-28T00:44:05.835Z,10.65
2022-09-28T00:45:06.167Z,10.66
2022-09-28T00:46:06.540Z,10.66
2022-09-28T00:47:06.714Z,10.66
2022-09-28T00:48:07.036Z,10.62
2022-09-28T00:49:07.318Z,10.62
2022-09-28T00:50:07.583Z,10.59
2022-09-28T00:51:07.808Z,10.59
2022-09-28T00:52:08.113Z,10.65
2022-09-28T00:53:08.446Z,10.63
2022-09-28T00:54:08.759Z,10.63
2022-09-28T00:55:09.027Z,10.66
2022-09-28T00:56:09.332Z,10.62
2022-09-28T00:57:09.637Z,10.62
2022-09-28T00:58:09.935Z,10.66
2022-09-28T00:59:10.243Z,10.71
2022-09-28T01:00:10.551Z,10.70
2022-09-28T01:01:10.853Z,10.68
2022-09-28T01:02:11.102Z,10.65
2022-09-28T01:03:11.320Z,10.66
2022-09-28T01:04:11.635Z,10.68
2022-09-28T01:05:11.959Z,10.66
2022-09-28T01:06:12.294Z,10.66
2022-09-28T01:07:13.446Z,10.66
2022-09-28T01:08:12.840Z,10.71
2022-09-28T01:09:13.273Z,10.66
2022-09-28T01:10:13.430Z,10.68
2022-09-28T01:11:13.826Z,10.63
2022-09-28T01:12:14.101Z,10.62
2022-09-28T01:13:14.401Z,10.62
2022-09-28T01:14:14.693Z,10.62
2022-09-28T01:15:14.990Z,10.63
2022-09-28T01:16:15.381Z,10.62
2022-09-28T01:17:15.535Z,10.60
2022-09-28T01:18:15.828Z,10.62
2022-09-28T01:19:16.204Z,10.65
2022-09-28T01:20:16.498Z,10.66
2022-09-28T01:21:17.333Z,10.65
2022-09-28T01:22:17.045Z,10.62
2022-09-28T01:23:17.402Z,10.60
2022-09-28T01:24:17.662Z,10.63
2022-09-28T01:25:18.035Z,10.63
2022-09-28T01:26:18.337Z,10.68
2022-09-28T01:27:18.616Z,10.66
2022-09-28T01:28:18.937Z,10.70
2022-09-28T01:29:19.432Z,10.68
2022-09-28T01:30:19.602Z,10.70
2022-09-28T01:31:19.944Z,10.68
2022-09-28T01:32:20.071Z,10.63
2022-09-28T01:33:20.405Z,10.71
2022-09-28T01:34:20.672Z,10.71
2022-09-28T01:35:21.081Z,10.73
2022-09-28T01:36:21.329Z,10.71
2022-09-28T01:37:21.641Z,10.71
2022-09-28T01:38:21.905Z,10.66
2022-09-28T01:39:22.211Z,10.68
2022-09-28T01:40:22.582Z,10.71
2022-09-28T01:41:22.878Z,10.74
2022-09-28T01:42:23.155Z,10.65
2022-09-28T01:43:23.500Z,10.63
2022-09-28T01:44:23.765Z,10.66
2022-09-28T01:45:24.106Z,10.71
2022-09-28T01:46:24.410Z,10.70
2022-09-28T01:47:24.716Z,10.74
2022-09-28T01:48:24.908Z,10.77
2022-09-28T01:49:25.249Z,10.70
2022-09-28T01:50:25.552Z,10.74
2022-09-28T01:51:25.728Z,10.73
2022-09-28T01:52:26.060Z,10.71
2022-09-28T01:53:26.330Z,10.73
2022-09-28T01:54:26.614Z,10.74
2022-09-28T01:55:26.895Z,10.77
2022-09-28T01:56:27.243Z,10.77
2022-09-28T01:57:27.541Z,10.78
2022-09-28T01:58:27.850Z,10.80
2022-09-28T01:59:28.113Z,10.83
2022-09-28T02:00:28.478Z,10.84
2022-09-28T02:01:28.779Z,10.86
2022-09-28T02:02:29.194Z,10.84
2022-09-28T02:03:29.393Z,10.84
2022-09-28T02:04:29.633Z,10.83
2022-09-28T02:05:29.898Z,10.88
2022-09-28T02:06:30.207Z,10.91
2022-09-28T02:07:30.527Z,10.91
2022-09-28T02:08:30.863Z,10.86
2022-09-28T02:09:33.789Z,10.88
2022-09-28T02:10:31.450Z,10.89
2022-09-28T02:11:31.722Z,10.86
2022-09-28T02:12:31.990Z,10.86
2022-09-28T02:13:32.311Z,10.88
2022-09-28T02:14:32.637Z,10.91
2022-09-28T02:15:32.918Z,10.92
2022-09-28T02:16:33.211Z,10.99
2022-09-28T02:17:33.476Z,10.94
2022-09-28T02:18:33.782Z,10.91
2022-09-28T02:19:34.074Z,10.91
2022-09-28T02:20:34.356Z,10.91
2022-09-28T02:21:34.573Z,10.91
2022-09-28T02:22:34.887Z,10.83
2022-09-28T02:23:35.226Z,10.88
2022-09-28T02:24:35.482Z,10.94
2022-09-28T02:25:35.853Z,10.84
2022-09-28T02:26:36.137Z,10.83
2022-09-28T02:27:36.431Z,10.83
2022-09-28T02:28:36.704Z,10.81
2022-09-28T02:29:37.048Z,10.84
2022-09-28T02:30:37.287Z,10.88
2022-09-28T02:31:37.660Z,10.92
2022-09-28T02:32:37.940Z,10.98
2022-09-28T02:33:38.217Z,10.99
2022-09-28T02:34:38.555Z,10.98
2022-09-28T02:35:38.814Z,10.99
2022-09-28T02:36:39.192Z,10.92
2022-09-28T02:37:39.447Z,10.89
2022-09-28T02:38:39.717Z,10.84
2022-09-28T02:39:40.096Z,10.86
2022-09-28T02:40:40.421Z,10.84
2022-09-28T02:41:40.754Z,10.84
2022-09-28T02:42:41.042Z,10.86
2022-09-28T02:43:41.316Z,10.89
2022-09-28T02:44:41.638Z,10.98
2022-09-28T02:45:41.995Z,11.03
2022-09-28T02:46:42.251Z,11.06
2022-09-28T02:47:42.569Z,11.11
2022-09-28T02:48:44.208Z,11.09
2022-09-28T02:49:43.173Z,11.13
2022-09-28T02:50:43.471Z,11.02
2022-09-28T02:51:43.812Z,10.96
2022-09-28T02:52:44.106Z,10.94
2022-09-28T02:53:44.433Z,10.83
2022-09-28T02:54:44.709Z,10.91
2022-09-28T02:55:44.940Z,10.83
2022-09-28T02:56:45.234Z,10.91
2022-09-28T02:57:45.474Z,10.96
2022-09-28T02:58:45.771Z,10.99
2022-09-28T02:59:46.032Z,10.98
2022-09-28T03:00:46.532Z,10.96
2022-09-28T03:01:46.719Z,10.99
2022-09-28T03:02:46.956Z,10.98
2022-09-28T03:03:47.282Z,10.95
2022-09-28T03:04:47.525Z,10.94
2022-09-28T03:05:47.996Z,10.94
2022-09-28T03:06:48.129Z,10.96
2022-09-28T03:07:48.403Z,10.94
2022-09-28T03:08:48.679Z,10.99
2022-09-28T03:09:49.015Z,11.06
2022-09-28T03:10:49.235Z,11.09
2022-09-28T03:11:49.542Z,11.06
2022-09-28T03:12:49.827Z,11.02
2022-09-28T03:13:50.106Z,11.01
2022-09-28T03:14:50.420Z,11.01
2022-09-28T03:15:50.708Z,11.06
2022-09-28T03:16:51.003Z,11.06
2022-09-28T03:17:51.323Z,11.14
2022-09-28T03:18:51.641Z,11.13
2022-09-28T03:19:51.893Z,11.01
2022-09-28T03:20:52.247Z,10.96
2022-09-28T03:21:52.524Z,10.95
2022-09-28T03:23:12.760Z,10.95
2022-09-28T03:23:54.075Z,10.96
2022-09-28T03:24:53.343Z,10.96
2022-09-28T03:25:53.680Z,11.01
2022-09-28T03:26:53.918Z,10.92
2022-09-28T03:27:54.198Z,10.91
2022-09-28T03:28:54.575Z,10.95
2022-09-28T03:29:54.868Z,11.01
2022-09-28T03:30:55.195Z,11.06
2022-09-28T03:31:55.525Z,11.11
2022-09-28T03:32:55.779Z,11.16
2022-09-28T03:33:56.529Z,11.20
2022-09-28T03:34:56.281Z,11.21
2022-09-28T03:35:56.686Z,11.28
2022-09-28T03:36:57.009Z,11.32
2022-09-28T03:37:57.299Z,11.29
2022-09-28T03:38:57.574Z,11.31
2022-09-28T03:39:57.895Z,11.34
2022-09-28T03:40:58.259Z,11.34
2022-09-28T03:41:58.398Z,11.32
2022-09-28T03:42:58.686Z,11.35
2022-09-28T03:43:59.029Z,11.38
2022-09-28T03:44:59.312Z,11.38
2022-09-28T03:45:59.720Z,11.38
2022-09-28T03:46:59.918Z,11.36
2022-09-28T03:48:00.223Z,11.31
2022-09-28T03:49:00.501Z,11.35
2022-09-28T03:50:00.814Z,11.29
2022-09-28T03:51:02.057Z,11.27
2022-09-28T03:52:01.286Z,11.21
2022-09-28T03:53:01.654Z,11.19
2022-09-28T03:54:01.944Z,11.25
2022-09-28T03:55:02.224Z,11.28
2022-09-28T03:56:02.597Z,11.31
2022-09-28T03:57:02.878Z,11.31
2022-09-28T03:58:03.144Z,11.29
2022-09-28T03:59:03.414Z,11.32
2022-09-28T04:00:03.732Z,11.34
2022-09-28T04:01:04.170Z,11.35
2022-09-28T04:02:04.392Z,11.25
2022-09-28T04:03:04.608Z,11.06
2022-09-28T04:04:04.833Z,10.99
2022-09-28T04:05:05.172Z,11.01
2022-09-28T04:06:05.412Z,11.03
2022-09-28T04:07:05.817Z,11.07
2022-09-28T04:08:05.981Z,11.01
2022-09-28T04:09:06.326Z,11.01
2022-09-28T04:10:06.641Z,11.07
2022-09-28T04:11:06.952Z,11.11
2022-09-28T04:12:07.257Z,11.17
2022-09-28T04:13:07.568Z,11.25
2022-09-28T04:14:07.860Z,11.25
2022-09-28T04:15:08.219Z,11.28
2022-09-28T04:16:08.477Z,11.31
2022-09-28T04:17:08.731Z,11.32
2022-09-28T04:18:09.068Z,11.36
2022-09-28T04:19:09.357Z,11.38
2022-09-28T04:20:09.633Z,11.34
2022-09-28T04:21:09.960Z,11.35
2022-09-28T04:22:10.195Z,11.36
2022-09-28T04:23:10.536Z,11.43
2022-09-28T04:24:10.795Z,11.43
2022-09-28T04:25:11.127Z,11.44
2022-09-28T04:26:11.445Z,11.46
2022-09-28T04:27:11.812Z,11.43
2022-09-28T04:28:12.023Z,11.44
2022-09-28T04:29:12.308Z,11.29
2022-09-28T04:30:12.549Z,11.21
2022-09-28T04:31:12.930Z,11.19
2022-09-28T04:32:13.095Z,11.16
2022-09-28T04:33:13.362Z,11.09
2022-09-28T04:34:13.725Z,11.10
2022-09-28T04:35:13.998Z,11.07
2022-09-28T04:36:14.373Z,11.03
2022-09-28T04:37:14.597Z,11.01
2022-09-28T04:38:14.967Z,11.03
2022-09-28T04:39:15.163Z,11.06
2022-09-28T04:40:15.521Z,11.10
2022-09-28T04:41:15.800Z,11.03
2022-09-28T04:42:16.071Z,11.09
2022-09-28T04:43:16.424Z,11.13
2022-09-28T04:44:16.663Z,11.17
2022-09-28T04:45:16.990Z,11.24
2022-09-28T04:46:18.183Z,11.29
2022-09-28T04:47:17.586Z,11.31
2022-09-28T04:48:17.908Z,11.25
2022-09-28T04:49:18.345Z,11.28
2022-09-28T04:50:18.536Z,11.31
2022-09-28T04:51:18.948Z,11.31
2022-09-28T04:52:20.286Z,11.32
2022-09-28T04:53:20.917Z,11.35
2022-09-28T04:54:19.627Z,11.38
2022-09-28T04:55:19.844Z,11.35
2022-09-28T04:56:20.220Z,11.31
2022-09-28T04:57:20.518Z,11.31
2022-09-28T04:58:20.823Z,11.27
2022-09-28T04:59:21.116Z,11.17
2022-09-28T05:00:21.418Z,11.20
2022-09-28T05:01:21.741Z,11.25
2022-09-28T05:02:22.038Z,11.24
2022-09-28T05:03:22.298Z,11.20
2022-09-28T05:04:25.994Z,11.25
2022-09-28T05:05:22.743Z,11.24
2022-09-28T05:06:23.142Z,11.21
2022-09-28T05:07:23.336Z,11.14
2022-09-28T05:08:23.676Z,11.11
2022-09-28T05:09:24.027Z,11.10
2022-09-28T05:10:24.254Z,11.07
2022-09-28T05:11:24.479Z,11.09
2022-09-28T05:12:24.895Z,11.10
2022-09-28T05:13:25.124Z,11.02
2022-09-28T05:14:25.370Z,11.01
2022-09-28T05:15:25.648Z,11.03
2022-09-28T05:16:25.956Z,11.02
2022-09-28T05:17:26.140Z,11.06
2022-09-28T05:18:26.534Z,11.09
2022-09-28T05:19:26.808Z,11.16
2022-09-28T05:20:27.025Z,11.20
2022-09-28T05:21:27.288Z,11.24
2022-09-28T05:22:27.544Z,11.27
2022-09-28T05:23:27.772Z,11.31
2022-09-28T05:24:28.000Z,11.28
2022-09-28T05:25:28.382Z,11.29
2022-09-28T05:26:28.628Z,11.29
2022-09-28T05:27:28.936Z,11.31
2022-09-28T05:28:29.136Z,11.27
2022-09-28T05:29:32.247Z,11.25
2022-09-28T05:30:29.740Z,11.29
2022-09-28T05:31:29.987Z,11.27
2022-09-28T05:32:30.260Z,11.17
2022-09-28T05:33:30.444Z,11.21
2022-09-28T05:34:30.777Z,11.17
2022-09-28T05:35:31.062Z,11.14
2022-09-28T05:36:31.243Z,11.19
2022-09-28T05:37:31.564Z,11.17
2022-09-28T05:38:31.740Z,11.16
2022-09-28T05:39:32.083Z,11.20
2022-09-28T05:40:32.395Z,11.19
2022-09-28T05:41:32.622Z,11.13
2022-09-28T05:42:32.905Z,11.06
2022-09-28T05:43:33.181Z,11.02
2022-09-28T05:44:33.422Z,11.09
2022-09-28T05:45:33.734Z,11.03
2022-09-28T05:46:34.001Z,11.07
2022-09-28T05:47:34.253Z,11.10
2022-09-28T05:48:34.488Z,11.07
2022-09-28T05:49:34.884Z,11.03
2022-09-28T05:50:36.075Z,11.01
2022-09-28T05:51:35.333Z,10.94
2022-09-28T05:52:35.527Z,11.01
2022-09-28T05:53:35.888Z,10.95
2022-09-28T05:54:36.171Z,10.98
2022-09-28T05:55:36.497Z,10.99
2022-09-28T05:56:36.746Z,11.02
2022-09-28T05:57:37.001Z,11.01
2022-09-28T05:58:37.301Z,11.09
2022-09-28T05:59:37.530Z,11.10
2022-09-28T06:00:38.005Z,11.13
2022-09-28T06:01:38.305Z,11.20
2022-09-28T06:02:38.535Z,11.19
2022-09-28T06:03:38.799Z,11.13
2022-09-28T06:04:39.088Z,11.07
2022-09-28T06:05:39.408Z,11.06
2022-09-28T06:06:39.577Z,11.06
2022-09-28T06:07:39.828Z,11.07
2022-09-28T06:08:40.084Z,11.10
2022-09-28T06:09:40.362Z,11.17
2022-09-28T06:10:40.620Z,11.28
2022-09-28T06:11:40.837Z,11.31
2022-09-28T06:12:41.131Z,11.31
2022-09-28T06:13:41.376Z,11.34
2022-09-28T06:14:41.609Z,11.41
2022-09-28T06:15:41.946Z,11.49
2022-09-28T06:16:43.991Z,11.49
2022-09-28T06:17:42.450Z,11.53
2022-09-28T06:18:42.885Z,11.52
2022-09-28T06:19:43.056Z,11.54
2022-09-28T06:20:43.297Z,11.61
2022-09-28T06:21:43.566Z,11.70
2022-09-28T06:22:43.798Z,11.68
2022-09-28T06:23:48.851Z,11.70
2022-09-28T06:24:45.377Z,11.74
2022-09-28T06:25:44.613Z,11.71
2022-09-28T06:26:44.858Z,11.70
2022-09-28T06:27:45.070Z,11.74
2022-09-28T06:28:45.339Z,11.75
2022-09-28T06:29:45.640Z,11.82
2022-09-28T06:30:45.924Z,11.83
2022-09-28T06:31:46.192Z,11.82
2022-09-28T06:32:46.389Z,11.85
2022-09-28T06:33:46.628Z,11.83
2022-09-28T06:34:46.898Z,11.77
2022-09-28T06:35:47.150Z,11.77
2022-09-28T06:36:47.376Z,11.77
2022-09-28T06:37:47.616Z,11.72
2022-09-28T06:38:47.879Z,11.71
2022-09-28T06:39:48.181Z,11.71
2022-09-28T06:40:48.528Z,11.72
2022-09-28T06:41:48.706Z,11.75
2022-09-28T06:42:49.018Z,11.74
2022-09-28T06:43:49.275Z,11.70
2022-09-28T06:44:49.512Z,11.70
2022-09-28T06:45:49.807Z,11.72
2022-09-28T06:46:50.067Z,11.77
2022-09-28T06:47:50.292Z,11.75
2022-09-28T06:48:50.644Z,11.71
2022-09-28T06:49:50.951Z,11.70
2022-09-28T06:50:51.205Z,11.72
2022-09-28T06:51:51.418Z,11.71
2022-09-28T06:52:51.675Z,11.72
2022-09-28T06:53:51.891Z,11.74
2022-09-28T06:54:52.309Z,11.75
2022-09-28T06:55:52.562Z,11.70
2022-09-28T06:56:52.812Z,11.71
2022-09-28T06:57:53.067Z,11.72
2022-09-28T06:58:53.369Z,11.72
2022-09-28T06:59:53.607Z,11.67
2022-09-28T07:00:54.335Z,11.61
2022-09-28T07:01:54.222Z,11.57
2022-09-28T07:02:54.473Z,11.54
2022-09-28T07:03:55.826Z,11.59
2022-09-28T07:04:55.043Z,11.52
2022-09-28T07:05:55.294Z,11.59
2022-09-28T07:06:55.551Z,11.62
2022-09-28T07:07:55.855Z,11.62
2022-09-28T07:09:11.719Z,11.68
2022-09-28T07:09:57.399Z,11.62
2022-09-28T07:10:56.682Z,11.61
2022-09-28T07:11:57.234Z,11.64
2022-09-28T07:12:57.165Z,11.68
2022-09-28T07:13:57.427Z,11.74
2022-09-28T07:14:57.696Z,11.80
2022-09-28T07:15:57.950Z,11.82
2022-09-28T07:17:12.411Z,11.82
2022-09-28T07:18:02.591Z,11.87
2022-09-28T07:18:58.679Z,11.85
2022-09-28T07:20:03.906Z,11.85
2022-09-28T07:21:00.201Z,11.89
2022-09-28T07:22:04.432Z,11.93
2022-09-28T07:23:12.344Z,11.94
2022-09-28T07:24:01.066Z,11.99
2022-09-28T07:25:00.346Z,11.97
2022-09-28T07:26:00.652Z,11.96
2022-09-28T07:27:00.852Z,11.99
2022-09-28T07:28:01.192Z,11.99
2022-09-28T07:29:01.502Z,12.04
2022-09-28T07:30:01.731Z,12.13
2022-09-28T07:31:02.008Z,12.19
2022-09-28T07:32:02.255Z,12.24
2022-09-28T07:33:02.515Z,12.29
2022-09-28T07:34:02.834Z,12.31
2022-09-28T07:35:03.131Z,12.33
2022-09-28T07:36:03.381Z,12.39
2022-09-28T07:37:03.652Z,12.46
2022-09-28T07:38:03.983Z,12.49
2022-09-28T07:39:04.232Z,12.51
2022-09-28T07:40:04.473Z,12.56
2022-09-28T07:41:04.786Z,12.63
2022-09-28T07:42:05.044Z,12.66
2022-09-28T07:43:05.333Z,12.74
2022-09-28T07:44:05.547Z,12.85
2022-09-28T07:45:05.842Z,12.85
2022-09-28T07:46:06.155Z,12.92
2022-09-28T07:47:06.369Z,12.95
2022-09-28T07:48:06.659Z,12.99
2022-09-28T07:49:09.904Z,12.99
2022-09-28T07:50:08.169Z,13.00
2022-09-28T07:51:07.458Z,13.07
2022-09-28T07:52:07.720Z,13.14
2022-09-28T07:53:07.984Z,13.21
2022-09-28T07:54:08.237Z,13.22
2022-09-28T07:55:08.515Z,13.24
2022-09-28T07:56:08.767Z,13.32
2022-09-28T07:57:09.132Z,13.43
2022-09-28T07:58:09.426Z,13.51
2022-09-28T07:59:09.668Z,13.58
2022-09-28T08:00:10.014Z,13.62
2022-09-28T08:01:10.377Z,13.61
2022-09-28T08:02:10.843Z,13.62
2022-09-28T08:03:10.787Z,13.58
2022-09-28T08:04:11.095Z,13.69
2022-09-28T08:05:11.378Z,13.77
2022-09-28T08:06:11.617Z,13.91
2022-09-28T08:07:12.004Z,14.10
2022-09-28T08:08:12.202Z,14.31
2022-09-28T08:09:12.466Z,14.28
2022-09-28T08:10:12.776Z,14.19
2022-09-28T08:11:13.088Z,14.14
2022-09-28T08:12:13.223Z,14.25
2022-09-28T08:13:13.588Z,14.29
2022-09-28T08:14:13.846Z,14.52
2022-09-28T08:15:14.218Z,14.75
2022-09-28T08:16:14.540Z,15.11
2022-09-28T08:17:14.702Z,15.36
2022-09-28T08:18:14.953Z,15.59
2022-09-28T08:19:15.252Z,15.52
2022-09-28T08:20:15.472Z,15.42
2022-09-28T08:21:15.768Z,15.30
2022-09-28T08:22:15.974Z,15.57
2022-09-28T08:23:16.310Z,15.81
2022-09-28T08:24:16.620Z,15.85
2022-09-28T08:25:16.802Z,15.84
2022-09-28T08:26:17.115Z,15.94
2022-09-28T08:27:17.323Z,15.76
2022-09-28T08:28:17.701Z,15.36
2022-09-28T08:29:17.926Z,15.03
2022-09-28T08:30:18.098Z,14.87
2022-09-28T08:31:18.529Z,14.75
2022-09-28T08:32:18.764Z,14.53
2022-09-28T08:33:19.039Z,14.31
2022-09-28T08:34:19.412Z,14.29
2022-09-28T08:35:19.602Z,14.25
2022-09-28T08:36:19.847Z,14.29
2022-09-28T08:37:20.092Z,14.37
2022-09-28T08:38:20.348Z,14.49
2022-09-28T08:39:20.639Z,14.61
2022-09-28T08:40:20.901Z,14.64
2022-09-28T08:41:21.152Z,14.46
2022-09-28T08:42:21.485Z,14.25
2022-09-28T08:43:21.847Z,14.20
2022-09-28T08:44:21.943Z,14.12
2022-09-28T08:45:23.256Z,14.10
2022-09-28T08:46:25.032Z,14.09
2022-09-28T08:47:22.827Z,14.07
2022-09-28T08:48:23.039Z,13.95
2022-09-28T08:49:25.739Z,13.74
2022-09-28T08:50:23.677Z,13.79
2022-09-28T08:51:23.894Z,13.88
2022-09-28T08:52:24.112Z,13.87
2022-09-28T08:53:24.450Z,13.84
2022-09-28T08:54:26.671Z,13.81
2022-09-28T08:55:24.940Z,13.95
2022-09-28T08:56:25.190Z,13.94
2022-09-28T08:57:25.483Z,14.10
2022-09-28T08:58:25.701Z,14.13
2022-09-28T08:59:25.916Z,14.06
2022-09-28T09:00:26.301Z,13.96
2022-09-28T09:01:26.683Z,13.95
2022-09-28T09:02:26.918Z,13.94
2022-09-28T09:03:27.283Z,13.70
2022-09-28T09:04:27.469Z,13.61
2022-09-28T09:05:27.994Z,13.74
2022-09-28T09:06:28.066Z,13.92
2022-09-28T09:07:28.338Z,14.12
2022-09-28T09:08:28.610Z,14.31
2022-09-28T09:09:28.927Z,14.46
2022-09-28T09:10:29.148Z,14.54
2022-09-28T09:11:29.395Z,14.50
2022-09-28T09:12:29.748Z,14.54
2022-09-28T09:13:29.957Z,14.56
2022-09-28T09:14:30.219Z,14.62
2022-09-28T09:15:30.487Z,14.84
2022-09-28T09:16:30.856Z,15.01
2022-09-28T09:17:31.040Z,14.99
2022-09-28T09:18:31.278Z,14.95
2022-09-28T09:19:31.563Z,14.88
2022-09-28T09:20:31.907Z,14.81
2022-09-28T09:21:32.161Z,14.83
2022-09-28T09:22:32.394Z,14.98
2022-09-28T09:23:32.698Z,14.87
2022-09-28T09:24:33.005Z,14.74
2022-09-28T09:25:36.555Z,14.60
2022-09-28T09:26:34.508Z,14.67
2022-09-28T09:27:33.789Z,14.69
2022-09-28T09:28:34.993Z,14.75
2022-09-28T09:29:34.392Z,14.80
2022-09-28T09:30:34.695Z,15.01
2022-09-28T09:31:34.935Z,15.02
2022-09-28T09:32:35.183Z,15.20
2022-09-28T09:33:35.386Z,15.24
2022-09-28T09:34:35.678Z,15.19
2022-09-28T09:35:36.013Z,15.02
2022-09-28T09:36:36.198Z,14.98
2022-09-28T09:37:36.446Z,14.93
2022-09-28T09:38:36.686Z,14.90
2022-09-28T09:39:37.015Z,14.93
2022-09-28T09:40:37.337Z,15.01
2022-09-28T09:41:37.535Z,14.99
2022-09-28T09:42:37.824Z,15.03
2022-09-28T09:43:38.050Z,15.13
2022-09-28T09:44:38.288Z,15.12
2022-09-28T09:45:38.704Z,15.08
2022-09-28T09:46:38.845Z,14.99
2022-09-28T09:47:39.029Z,14.90
2022-09-28T09:48:39.375Z,14.78
2022-09-28T09:49:39.626Z,14.69
2022-09-28T09:50:39.878Z,14.56
2022-09-28T09:51:40.148Z,14.49
2022-09-28T09:52:43.687Z,14.38
2022-09-28T09:53:40.697Z,14.29
2022-09-28T09:54:40.913Z,14.20
2022-09-28T09:55:41.171Z,14.21
2022-09-28T09:56:41.541Z,14.44
2022-09-28T09:57:41.743Z,14.64
2022-09-28T09:58:42.007Z,14.83
2022-09-28T09:59:42.394Z,15.06
2022-09-28T10:00:42.622Z,15.31
2022-09-28T10:01:43.107Z,15.43
2022-09-28T10:02:43.215Z,15.75
2022-09-28T10:03:43.439Z,15.52
2022-09-28T10:04:43.669Z,15.56
2022-09-28T10:05:43.961Z,15.64
2022-09-28T10:06:44.242Z,15.89
2022-09-28T10:07:44.487Z,16.45
2022-09-28T10:08:44.721Z,16.99
2022-09-28T10:09:44.980Z,17.48
2022-09-28T10:10:45.233Z,17.43
2022-09-28T10:11:45.553Z,17.15
2022-09-28T10:12:45.754Z,16.92
2022-09-28T10:13:46.038Z,16.73
2022-09-28T10:14:46.275Z,16.48
2022-09-28T10:15:46.567Z,16.20
2022-09-28T10:16:46.807Z,15.82
2022-09-28T10:17:47.038Z,15.56
2022-09-28T10:18:47.307Z,15.36
2022-09-28T10:19:47.535Z,15.49
2022-09-28T10:20:47.772Z,15.97
2022-09-28T10:21:47.994Z,16.15
2022-09-28T10:22:48.266Z,16.95
2022-09-28T10:23:48.569Z,18.04
2022-09-28T10:24:48.831Z,19.10
2022-09-28T10:25:49.069Z,20.00
2022-09-28T10:26:49.330Z,20.90
2022-09-28T10:27:49.772Z,21.60
2022-09-28T10:28:49.856Z,21.97
2022-09-28T10:29:50.508Z,22.34
2022-09-28T10:30:50.510Z,22.89
2022-09-28T10:31:50.770Z,23.26
2022-09-28T10:32:51.181Z,22.94
2022-09-28T10:33:51.702Z,23.35
2022-09-28T10:34:51.721Z,22.90
2022-09-28T10:35:51.966Z,23.07
2022-09-28T10:36:52.242Z,23.27
2022-09-28T10:37:52.491Z,23.49
2022-09-28T10:38:52.715Z,23.04
2022-09-28T10:39:53.119Z,22.96
2022-09-28T10:40:53.412Z,23.14
2022-09-28T10:41:53.676Z,23.55
2022-09-28T10:42:53.933Z,23.39
2022-09-28T10:43:58.017Z,23.65
2022-09-28T10:44:54.454Z,23.79
2022-09-28T10:45:54.744Z,23.40
2022-09-28T10:46:55.038Z,22.90
2022-09-28T10:47:55.313Z,23.24
2022-09-28T10:48:55.522Z,22.87
2022-09-28T10:49:55.775Z,23.42
2022-09-28T10:50:56.068Z,24.04
2022-09-28T10:51:56.370Z,23.90
2022-09-28T10:52:56.534Z,24.31
2022-09-28T10:53:56.798Z,24.63
2022-09-28T10:54:57.035Z,24.47
2022-09-28T10:55:57.269Z,23.94
2022-09-28T10:56:57.559Z,23.40
2022-09-28T10:57:58.332Z,22.38
2022-09-28T10:58:58.284Z,21.51
2022-09-28T10:59:59.070Z,21.95
2022-09-28T11:00:58.760Z,22.12
2022-09-28T11:01:58.836Z,21.59
2022-09-28T11:02:59.159Z,21.92
2022-09-28T11:03:59.431Z,22.47
2022-09-28T11:04:59.629Z,21.63
2022-09-28T11:06:00.029Z,21.04
2022-09-28T11:08:00.560Z,19.65
2022-09-28T11:09:00.804Z,19.13
2022-09-28T11:10:01.165Z,18.61
2022-09-28T11:11:01.394Z,18.12
2022-09-28T11:12:01.655Z,17.81
2022-09-28T11:13:01.907Z,17.69
2022-09-28T11:14:02.322Z,17.51
2022-09-28T11:15:02.425Z,17.26
2022-09-28T11:16:02.721Z,17.17
2022-09-28T11:17:02.996Z,17.08
2022-09-28T11:18:03.301Z,17.04
2022-09-28T11:19:03.509Z,16.86
2022-09-28T11:20:03.735Z,16.75
2022-09-28T11:21:04.012Z,16.71
2022-09-28T11:22:04.292Z,17.54
2022-09-28T11:23:04.569Z,17.41
2022-09-28T11:24:04.895Z,17.28
2022-09-28T11:25:05.109Z,17.11
2022-09-28T11:26:05.421Z,16.99
2022-09-28T11:27:05.673Z,16.89
2022-09-28T11:28:05.972Z,16.80
2022-09-28T11:29:06.238Z,16.70
2022-09-28T11:30:06.478Z,16.58
2022-09-28T11:31:06.881Z,16.52
2022-09-28T11:32:06.936Z,16.41
2022-09-28T11:33:07.348Z,16.37
2022-09-28T11:34:07.584Z,16.35
2022-09-28T11:35:07.842Z,16.27
2022-09-28T11:36:08.132Z,16.22
2022-09-28T11:37:08.354Z,16.09
2022-09-28T11:38:08.593Z,15.92
2022-09-28T11:39:08.832Z,15.74
2022-09-28T11:40:09.132Z,15.54
2022-09-28T11:41:09.305Z,15.48
2022-09-28T11:42:14.146Z,15.41
2022-09-28T11:43:12.288Z,15.43
2022-09-28T11:44:10.235Z,15.39
2022-09-28T11:45:10.521Z,16.18
2022-09-28T11:46:10.934Z,16.16
2022-09-28T11:47:11.634Z,16.20
2022-09-28T11:48:11.368Z,16.22
2022-09-28T11:49:11.638Z,16.63
2022-09-28T11:50:11.875Z,16.71
2022-09-28T11:51:12.175Z,16.70
2022-09-28T11:52:12.355Z,16.68
2022-09-28T11:53:12.713Z,16.65
2022-09-28T11:54:12.983Z,16.63
2022-09-28T11:55:13.202Z,16.70
2022-09-28T11:56:13.476Z,16.75
2022-09-28T11:57:13.688Z,16.85
2022-09-28T11:58:14.096Z,17.00
2022-09-28T11:59:14.316Z,17.67
2022-09-28T12:00:14.687Z,18.97
2022-09-28T12:01:18.748Z,19.36
2022-09-28T12:02:15.155Z,19.42
2022-09-28T12:03:15.789Z,19.20
2022-09-28T12:04:15.696Z,19.55
2022-09-28T12:05:20.486Z,19.15
2022-09-28T12:06:17.120Z,18.90
2022-09-28T12:07:16.352Z,18.44
2022-09-28T12:08:16.588Z,18.15
2022-09-28T12:09:16.853Z,17.94
2022-09-28T12:10:17.106Z,17.36
2022-09-28T12:11:17.341Z,16.74
2022-09-28T12:12:17.572Z,16.55
2022-09-28T12:13:17.906Z,16.31
2022-09-28T12:14:18.339Z,16.23
2022-09-28T12:15:18.602Z,16.22
2022-09-28T12:17:20.409Z,16.23
2022-09-28T12:18:19.302Z,16.33
2022-09-28T12:19:19.698Z,16.35
2022-09-28T12:20:19.823Z,16.44
2022-09-28T12:21:19.984Z,16.49
2022-09-28T12:22:20.342Z,16.52
2022-09-28T12:23:20.578Z,16.53
2022-09-28T12:24:20.834Z,16.52
2022-09-28T12:25:21.095Z,16.55
2022-09-28T12:26:21.329Z,16.52
2022-09-28T12:27:21.593Z,16.35
2022-09-28T12:28:21.850Z,16.33
2022-09-28T12:29:22.097Z,16.18
2022-09-28T12:30:22.321Z,16.14
2022-09-28T12:31:22.612Z,16.09
2022-09-28T12:32:22.869Z,16.18
2022-09-28T12:33:26.906Z,16.14
2022-09-28T12:34:23.403Z,16.15
2022-09-28T12:35:23.660Z,16.25
2022-09-28T12:36:23.895Z,16.27
2022-09-28T12:37:24.383Z,16.30
2022-09-28T12:38:24.621Z,16.34
2022-09-28T12:39:40.762Z,16.41
2022-09-28T12:40:26.216Z,16.45
2022-09-28T12:41:25.418Z,16.45
2022-09-28T12:42:25.648Z,16.44
2022-09-28T12:43:25.893Z,16.44
2022-09-28T12:44:26.139Z,16.41
2022-09-28T12:45:27.288Z,16.41
2022-09-28T12:46:26.720Z,16.35
2022-09-28T12:47:26.911Z,16.31
2022-09-28T12:48:27.313Z,16.25
2022-09-28T12:50:51.206Z,16.22
2022-09-28T12:51:29.101Z,16.20
2022-09-28T12:52:28.442Z,16.23
2022-09-28T12:53:28.713Z,16.23
2022-09-28T12:54:28.851Z,16.25
2022-09-28T12:55:29.123Z,16.26
2022-09-28T12:56:29.358Z,16.34
2022-09-28T12:57:29.556Z,16.31
2022-09-28T12:58:29.944Z,16.30
2022-09-28T12:59:30.186Z,16.30